Terminal Aerodrome Forecast
Issued by NWS

Current Version | Previous Version | Text Only | Print | Product List | Glossary On
Versions: 1 2 3 4 5 6 7 8 9 10 11 12 13 14 15
000
FTUS41 KCAR 311733
TAFHUL
TAF
KHUL 311733Z 3118/0118 24012KT P6SM SCT050
     FM312300 26006KT P6SM SCT250
     FM011400 22007KT P6SM BKN045=

USA.gov is the U.S. government's official web portal to all federal, state and local government web resources and services.